El Paso, Arkansas
Current Conditions -  °F | °C
As of 7:43 AM on Friday 19 Dec 2014 (Local Time) from KLRF Reporting Station
Broken Clouds Broken Clouds  
Wind Chill: 35°   Ceiling: 700
Heat Index: 39°   Visibility: 8mi
Dew Point: 37°   Wind: 6mph
Humidity: 93%   Direction: 40°NE
Pressure: 30.25"   Gusts: NA
Location:  35.13°N, 92.1°W
Report Text: KLRF 191343Z AUTO 04005KT 8SM BKN007 04/03 A3025 RMK AO2
Loading
Personal Weather Stations






























Interactive Weather Map New forecast layout! Learn more

10-Day Weather Forecast

Advertisements
Track Severe Weather on mobile